sensor_id;sensor_type;location;lat;lon;timestamp;P1;durP1;ratioP1;P2;durP2;ratioP2
11797;SDS011;5956;51.428;6.682;2022-12-07T00:01:30;14.57;;;13.17;;
11797;SDS011;5956;51.428;6.682;2022-12-07T00:04:00;14.60;;;13.10;;
11797;SDS011;5956;51.428;6.682;2022-12-07T00:06:30;14.80;;;13.43;;
11797;SDS011;5956;51.428;6.682;2022-12-07T00:08:57;15.20;;;13.60;;
11797;SDS011;5956;51.428;6.682;2022-12-07T00:11:24;15.00;;;13.70;;
11797;SDS011;5956;51.428;6.682;2022-12-07T00:13:51;16.00;;;14.50;;
11797;SDS011;5956;51.428;6.682;2022-12-07T00:16:18;18.03;;;14.30;;
11797;SDS011;5956;51.428;6.682;2022-12-07T00:18:45;15.27;;;13.77;;
11797;SDS011;5956;51.428;6.682;2022-12-07T00:21:14;14.97;;;13.67;;
11797;SDS011;5956;51.428;6.682;2022-12-07T00:23:41;14.33;;;13.03;;
11797;SDS011;5956;51.428;6.682;2022-12-07T00:26:09;15.37;;;13.83;;
11797;SDS011;5956;51.428;6.682;2022-12-07T00:28:36;16.07;;;14.53;;
11797;SDS011;5956;51.428;6.682;2022-12-07T00:31:04;15.97;;;14.47;;
11797;SDS011;5956;51.428;6.682;2022-12-07T00:33:31;15.90;;;14.37;;
11797;SDS011;5956;51.428;6.682;2022-12-07T00:35:58;15.43;;;13.83;;
11797;SDS011;5956;51.428;6.682;2022-12-07T00:38:27;15.23;;;13.77;;
11797;SDS011;5956;51.428;6.682;2022-12-07T00:40:55;16.57;;;15.07;;
11797;SDS011;5956;51.428;6.682;2022-12-07T00:43:22;16.83;;;15.03;;
11797;SDS011;5956;51.428;6.682;2022-12-07T00:45:49;15.50;;;14.10;;
11797;SDS011;5956;51.428;6.682;2022-12-07T00:48:15;16.93;;;15.13;;
11797;SDS011;5956;51.428;6.682;2022-12-07T00:50:42;16.93;;;15.23;;
11797;SDS011;5956;51.428;6.682;2022-12-07T00:53:08;16.53;;;15.03;;
11797;SDS011;5956;51.428;6.682;2022-12-07T00:55:36;16.53;;;14.93;;
11797;SDS011;5956;51.428;6.682;2022-12-07T00:58:03;16.47;;;14.60;;
11797;SDS011;5956;51.428;6.682;2022-12-07T01:00:30;16.87;;;15.17;;
11797;SDS011;5956;51.428;6.682;2022-12-07T01:02:56;15.87;;;14.23;;
11797;SDS011;5956;51.428;6.682;2022-12-07T01:05:23;16.17;;;14.57;;
11797;SDS011;5956;51.428;6.682;2022-12-07T01:07:50;16.67;;;15.17;;
11797;SDS011;5956;51.428;6.682;2022-12-07T01:10:16;18.77;;;16.77;;
11797;SDS011;5956;51.428;6.682;2022-12-07T01:12:44;14.93;;;13.50;;
11797;SDS011;5956;51.428;6.682;2022-12-07T01:15:11;16.77;;;15.00;;
11797;SDS011;5956;51.428;6.682;2022-12-07T01:17:37;15.53;;;14.10;;
11797;SDS011;5956;51.428;6.682;2022-12-07T01:20:04;15.67;;;14.17;;
11797;SDS011;5956;51.428;6.682;2022-12-07T01:22:31;16.63;;;14.93;;
11797;SDS011;5956;51.428;6.682;2022-12-07T01:25:02;16.27;;;14.60;;
11797;SDS011;5956;51.428;6.682;2022-12-07T01:27:28;16.43;;;14.93;;
11797;SDS011;5956;51.428;6.682;2022-12-07T01:29:57;16.40;;;14.73;;
11797;SDS011;5956;51.428;6.682;2022-12-07T01:32:23;16.60;;;15.00;;
11797;SDS011;5956;51.428;6.682;2022-12-07T01:34:50;16.03;;;14.40;;
11797;SDS011;5956;51.428;6.682;2022-12-07T01:37:16;15.40;;;14.00;;
11797;SDS011;5956;51.428;6.682;2022-12-07T01:39:43;15.83;;;14.13;;
11797;SDS011;5956;51.428;6.682;2022-12-07T01:42:09;15.77;;;14.13;;
11797;SDS011;5956;51.428;6.682;2022-12-07T01:47:19;16.47;;;14.77;;
11797;SDS011;5956;51.428;6.682;2022-12-07T01:49:46;15.27;;;13.87;;
11797;SDS011;5956;51.428;6.682;2022-12-07T01:52:15;15.70;;;13.43;;
11797;SDS011;5956;51.428;6.682;2022-12-07T01:54:43;18.20;;;13.83;;
11797;SDS011;5956;51.428;6.682;2022-12-07T01:57:10;15.77;;;14.10;;
11797;SDS011;5956;51.428;6.682;2022-12-07T01:59:37;16.63;;;14.93;;
11797;SDS011;5956;51.428;6.682;2022-12-07T02:02:05;15.77;;;14.27;;
11797;SDS011;5956;51.428;6.682;2022-12-07T02:04:35;15.90;;;14.33;;
11797;SDS011;5956;51.428;6.682;2022-12-07T02:07:02;15.43;;;13.93;;
11797;SDS011;5956;51.428;6.682;2022-12-07T02:09:29;15.63;;;14.23;;
11797;SDS011;5956;51.428;6.682;2022-12-07T02:11:56;15.30;;;13.50;;
11797;SDS011;5956;51.428;6.682;2022-12-07T02:14:23;15.07;;;13.60;;
11797;SDS011;5956;51.428;6.682;2022-12-07T02:16:53;16.97;;;15.37;;
11797;SDS011;5956;51.428;6.682;2022-12-07T02:34:34;15.90;;;14.40;;
11797;SDS011;5956;51.428;6.682;2022-12-07T02:37:03;16.30;;;14.63;;
11797;SDS011;5956;51.428;6.682;2022-12-07T02:39:37;16.73;;;14.83;;
11797;SDS011;5956;51.428;6.682;2022-12-07T02:42:07;15.93;;;14.33;;
11797;SDS011;5956;51.428;6.682;2022-12-07T02:44:35;18.67;;;15.23;;
11797;SDS011;5956;51.428;6.682;2022-12-07T02:47:03;16.27;;;14.63;;
11797;SDS011;5956;51.428;6.682;2022-12-07T02:49:31;15.90;;;13.93;;
11797;SDS011;5956;51.428;6.682;2022-12-07T02:51:59;15.57;;;14.07;;
11797;SDS011;5956;51.428;6.682;2022-12-07T02:54:26;16.33;;;14.73;;
11797;SDS011;5956;51.428;6.682;2022-12-07T02:56:54;16.07;;;14.47;;
11797;SDS011;5956;51.428;6.682;2022-12-07T02:59:25;15.40;;;13.90;;
11797;SDS011;5956;51.428;6.682;2022-12-07T03:01:56;17.17;;;14.43;;
11797;SDS011;5956;51.428;6.682;2022-12-07T03:04:28;15.43;;;13.80;;
11797;SDS011;5956;51.428;6.682;2022-12-07T03:07:01;15.77;;;14.00;;
11797;SDS011;5956;51.428;6.682;2022-12-07T03:09:32;15.43;;;13.93;;
11797;SDS011;5956;51.428;6.682;2022-12-07T03:12:01;14.93;;;13.57;;
11797;SDS011;5956;51.428;6.682;2022-12-07T03:14:30;15.40;;;13.80;;
11797;SDS011;5956;51.428;6.682;2022-12-07T03:16:58;15.10;;;13.10;;
11797;SDS011;5956;51.428;6.682;2022-12-07T03:19:27;16.93;;;14.07;;
11797;SDS011;5956;51.428;6.682;2022-12-07T03:21:54;16.47;;;13.63;;
11797;SDS011;5956;51.428;6.682;2022-12-07T03:24:24;15.47;;;14.00;;
11797;SDS011;5956;51.428;6.682;2022-12-07T03:26:54;16.20;;;14.63;;
11797;SDS011;5956;51.428;6.682;2022-12-07T03:29:23;15.03;;;13.53;;
11797;SDS011;5956;51.428;6.682;2022-12-07T03:31:52;14.63;;;13.10;;
11797;SDS011;5956;51.428;6.682;2022-12-07T03:34:21;14.17;;;12.67;;
11797;SDS011;5956;51.428;6.682;2022-12-07T03:36:53;14.73;;;13.27;;
11797;SDS011;5956;51.428;6.682;2022-12-07T03:39:22;14.03;;;12.43;;
11797;SDS011;5956;51.428;6.682;2022-12-07T03:41:52;15.50;;;13.13;;
11797;SDS011;5956;51.428;6.682;2022-12-07T03:44:19;14.20;;;12.83;;
11797;SDS011;5956;51.428;6.682;2022-12-07T03:46:48;14.83;;;12.80;;
11797;SDS011;5956;51.428;6.682;2022-12-07T03:49:18;13.67;;;12.37;;
11797;SDS011;5956;51.428;6.682;2022-12-07T03:51:48;14.17;;;12.77;;
11797;SDS011;5956;51.428;6.682;2022-12-07T03:54:17;14.67;;;13.13;;
11797;SDS011;5956;51.428;6.682;2022-12-07T03:56:45;14.37;;;12.87;;
11797;SDS011;5956;51.428;6.682;2022-12-07T03:59:14;14.70;;;13.20;;
11797;SDS011;5956;51.428;6.682;2022-12-07T04:01:42;15.80;;;13.27;;
11797;SDS011;5956;51.428;6.682;2022-12-07T04:04:09;15.47;;;13.90;;
11797;SDS011;5956;51.428;6.682;2022-12-07T04:06:35;15.10;;;13.70;;
11797;SDS011;5956;51.428;6.682;2022-12-07T04:09:02;15.87;;;14.13;;
11797;SDS011;5956;51.428;6.682;2022-12-07T04:11:29;15.57;;;13.97;;
11797;SDS011;5956;51.428;6.682;2022-12-07T04:13:56;15.77;;;14.30;;
11797;SDS011;5956;51.428;6.682;2022-12-07T04:16:37;18.03;;;14.27;;
11797;SDS011;5956;51.428;6.682;2022-12-07T04:19:03;16.17;;;14.47;;
11797;SDS011;5956;51.428;6.682;2022-12-07T04:21:28;16.67;;;13.80;;
11797;SDS011;5956;51.428;6.682;2022-12-07T04:23:55;15.90;;;14.40;;
11797;SDS011;5956;51.428;6.682;2022-12-07T04:26:21;16.20;;;14.57;;
11797;SDS011;5956;51.428;6.682;2022-12-07T04:28:48;15.17;;;13.67;;
11797;SDS011;5956;51.428;6.682;2022-12-07T04:31:14;15.80;;;14.17;;
11797;SDS011;5956;51.428;6.682;2022-12-07T04:33:42;15.93;;;14.30;;
11797;SDS011;5956;51.428;6.682;2022-12-07T04:36:09;15.40;;;13.73;;
11797;SDS011;5956;51.428;6.682;2022-12-07T04:38:35;14.93;;;13.33;;
11797;SDS011;5956;51.428;6.682;2022-12-07T04:41:04;15.40;;;13.23;;
11797;SDS011;5956;51.428;6.682;2022-12-07T04:43:30;17.10;;;13.67;;
11797;SDS011;5956;51.428;6.682;2022-12-07T04:45:57;14.10;;;12.60;;
11797;SDS011;5956;51.428;6.682;2022-12-07T04:48:23;14.80;;;13.27;;
11797;SDS011;5956;51.428;6.682;2022-12-07T04:50:51;15.40;;;13.40;;
11797;SDS011;5956;51.428;6.682;2022-12-07T04:53:18;15.50;;;13.80;;
11797;SDS011;5956;51.428;6.682;2022-12-07T04:55:45;15.13;;;13.53;;
11797;SDS011;5956;51.428;6.682;2022-12-07T04:58:11;14.20;;;12.70;;
11797;SDS011;5956;51.428;6.682;2022-12-07T05:00:38;18.53;;;13.67;;
11797;SDS011;5956;51.428;6.682;2022-12-07T05:03:05;14.63;;;13.27;;
11797;SDS011;5956;51.428;6.682;2022-12-07T05:05:32;13.53;;;12.17;;
11797;SDS011;5956;51.428;6.682;2022-12-07T05:08:00;14.17;;;12.00;;
11797;SDS011;5956;51.428;6.682;2022-12-07T05:10:26;13.87;;;12.63;;
11797;SDS011;5956;51.428;6.682;2022-12-07T05:12:53;21.30;;;12.83;;
11797;SDS011;5956;51.428;6.682;2022-12-07T05:15:19;15.40;;;13.77;;
11797;SDS011;5956;51.428;6.682;2022-12-07T05:17:46;16.63;;;12.80;;
11797;SDS011;5956;51.428;6.682;2022-12-07T05:20:13;13.13;;;11.83;;
11797;SDS011;5956;51.428;6.682;2022-12-07T05:22:39;13.90;;;12.10;;
11797;SDS011;5956;51.428;6.682;2022-12-07T05:25:07;13.73;;;12.33;;
11797;SDS011;5956;51.428;6.682;2022-12-07T05:27:34;13.87;;;12.47;;
11797;SDS011;5956;51.428;6.682;2022-12-07T05:30:00;13.33;;;11.93;;
11797;SDS011;5956;51.428;6.682;2022-12-07T05:32:27;14.13;;;11.67;;
11797;SDS011;5956;51.428;6.682;2022-12-07T05:34:54;13.47;;;11.50;;
11797;SDS011;5956;51.428;6.682;2022-12-07T05:37:21;15.70;;;12.17;;
11797;SDS011;5956;51.428;6.682;2022-12-07T05:39:47;15.70;;;12.83;;
11797;SDS011;5956;51.428;6.682;2022-12-07T05:42:15;17.27;;;13.77;;
11797;SDS011;5956;51.428;6.682;2022-12-07T05:44:42;13.50;;;12.07;;
11797;SDS011;5956;51.428;6.682;2022-12-07T05:47:10;13.10;;;11.83;;
11797;SDS011;5956;51.428;6.682;2022-12-07T05:49:36;14.63;;;11.23;;
11797;SDS011;5956;51.428;6.682;2022-12-07T05:52:03;12.47;;;11.20;;
11797;SDS011;5956;51.428;6.682;2022-12-07T05:54:29;12.97;;;11.60;;
11797;SDS011;5956;51.428;6.682;2022-12-07T05:56:56;13.57;;;11.30;;
11797;SDS011;5956;51.428;6.682;2022-12-07T05:59:24;12.73;;;11.43;;
11797;SDS011;5956;51.428;6.682;2022-12-07T06:01:50;14.43;;;11.57;;
11797;SDS011;5956;51.428;6.682;2022-12-07T06:04:17;12.73;;;11.40;;
11797;SDS011;5956;51.428;6.682;2022-12-07T06:06:44;12.50;;;11.00;;
11797;SDS011;5956;51.428;6.682;2022-12-07T06:09:11;12.20;;;11.03;;
11797;SDS011;5956;51.428;6.682;2022-12-07T06:11:38;12.17;;;10.53;;
11797;SDS011;5956;51.428;6.682;2022-12-07T06:14:18;11.43;;;10.33;;
11797;SDS011;5956;51.428;6.682;2022-12-07T06:16:45;10.23;;;8.90;;
11797;SDS011;5956;51.428;6.682;2022-12-07T06:19:10;10.20;;;9.20;;
11797;SDS011;5956;51.428;6.682;2022-12-07T06:21:37;10.00;;;9.00;;
11797;SDS011;5956;51.428;6.682;2022-12-07T06:24:04;11.27;;;8.97;;
11797;SDS011;5956;51.428;6.682;2022-12-07T06:26:30;8.27;;;7.23;;
11797;SDS011;5956;51.428;6.682;2022-12-07T06:28:57;6.33;;;5.70;;
11797;SDS011;5956;51.428;6.682;2022-12-07T06:31:24;22.97;;;10.90;;
11797;SDS011;5956;51.428;6.682;2022-12-07T06:33:56;10.77;;;8.50;;
11797;SDS011;5956;51.428;6.682;2022-12-07T06:36:22;9.77;;;8.63;;
11797;SDS011;5956;51.428;6.682;2022-12-07T06:38:50;9.67;;;8.20;;
11797;SDS011;5956;51.428;6.682;2022-12-07T06:41:16;9.53;;;7.90;;
11797;SDS011;5956;51.428;6.682;2022-12-07T06:43:43;10.60;;;8.03;;
11797;SDS011;5956;51.428;6.682;2022-12-07T06:46:09;10.47;;;8.27;;
11797;SDS011;5956;51.428;6.682;2022-12-07T06:48:36;9.70;;;8.80;;
11797;SDS011;5956;51.428;6.682;2022-12-07T06:51:04;9.63;;;8.37;;
11797;SDS011;5956;51.428;6.682;2022-12-07T06:53:31;13.27;;;8.77;;
11797;SDS011;5956;51.428;6.682;2022-12-07T06:55:57;9.70;;;8.70;;
11797;SDS011;5956;51.428;6.682;2022-12-07T06:58:24;10.50;;;8.77;;
11797;SDS011;5956;51.428;6.682;2022-12-07T07:00:51;11.67;;;8.93;;
11797;SDS011;5956;51.428;6.682;2022-12-07T07:03:17;12.03;;;9.27;;
11797;SDS011;5956;51.428;6.682;2022-12-07T07:05:44;10.80;;;9.70;;
11797;SDS011;5956;51.428;6.682;2022-12-07T07:08:12;11.13;;;9.90;;
11797;SDS011;5956;51.428;6.682;2022-12-07T07:10:39;10.10;;;9.10;;
11797;SDS011;5956;51.428;6.682;2022-12-07T07:13:06;10.13;;;9.23;;
11797;SDS011;5956;51.428;6.682;2022-12-07T07:15:33;9.83;;;8.87;;
11797;SDS011;5956;51.428;6.682;2022-12-07T07:18:01;9.63;;;8.67;;
11797;SDS011;5956;51.428;6.682;2022-12-07T07:20:28;9.47;;;8.57;;
11797;SDS011;5956;51.428;6.682;2022-12-07T07:22:55;10.10;;;8.53;;
11797;SDS011;5956;51.428;6.682;2022-12-07T07:25:23;10.70;;;9.70;;
11797;SDS011;5956;51.428;6.682;2022-12-07T07:27:50;9.70;;;8.70;;
11797;SDS011;5956;51.428;6.682;2022-12-07T07:30:16;10.90;;;9.90;;
11797;SDS011;5956;51.428;6.682;2022-12-07T07:32:43;12.40;;;9.03;;
11797;SDS011;5956;51.428;6.682;2022-12-07T07:35:10;11.23;;;9.20;;
11797;SDS011;5956;51.428;6.682;2022-12-07T07:37:36;10.17;;;9.17;;
11797;SDS011;5956;51.428;6.682;2022-12-07T07:40:03;10.97;;;9.60;;
11797;SDS011;5956;51.428;6.682;2022-12-07T07:42:32;9.90;;;8.90;;
11797;SDS011;5956;51.428;6.682;2022-12-07T07:44:58;9.50;;;8.60;;
11797;SDS011;5956;51.428;6.682;2022-12-07T07:47:25;10.47;;;9.03;;
11797;SDS011;5956;51.428;6.682;2022-12-07T07:49:51;10.63;;;9.57;;
11797;SDS011;5956;51.428;6.682;2022-12-07T07:52:18;13.10;;;8.77;;
11797;SDS011;5956;51.428;6.682;2022-12-07T07:54:44;12.23;;;9.63;;
11797;SDS011;5956;51.428;6.682;2022-12-07T07:57:11;9.60;;;8.60;;
11797;SDS011;5956;51.428;6.682;2022-12-07T07:59:39;10.23;;;9.03;;
11797;SDS011;5956;51.428;6.682;2022-12-07T08:02:06;10.93;;;9.83;;
11797;SDS011;5956;51.428;6.682;2022-12-07T08:04:33;9.80;;;8.77;;
11797;SDS011;5956;51.428;6.682;2022-12-07T08:06:59;11.43;;;9.77;;
11797;SDS011;5956;51.428;6.682;2022-12-07T08:09:26;10.17;;;9.20;;
11797;SDS011;5956;51.428;6.682;2022-12-07T08:11:52;10.57;;;9.20;;
11797;SDS011;5956;51.428;6.682;2022-12-07T08:14:19;10.17;;;8.80;;
11797;SDS011;5956;51.428;6.682;2022-12-07T08:16:47;9.40;;;8.50;;
11797;SDS011;5956;51.428;6.682;2022-12-07T08:19:13;11.20;;;9.93;;
11797;SDS011;5956;51.428;6.682;2022-12-07T08:21:40;11.97;;;9.27;;
11797;SDS011;5956;51.428;6.682;2022-12-07T08:24:06;9.83;;;8.83;;
11797;SDS011;5956;51.428;6.682;2022-12-07T08:26:33;9.87;;;8.87;;
11797;SDS011;5956;51.428;6.682;2022-12-07T08:29:00;9.73;;;8.30;;
11797;SDS011;5956;51.428;6.682;2022-12-07T08:31:26;9.37;;;8.40;;
11797;SDS011;5956;51.428;6.682;2022-12-07T08:33:55;9.70;;;8.20;;
11797;SDS011;5956;51.428;6.682;2022-12-07T08:36:22;9.07;;;8.20;;
11797;SDS011;5956;51.428;6.682;2022-12-07T08:38:49;10.27;;;8.60;;
11797;SDS011;5956;51.428;6.682;2022-12-07T08:41:16;10.03;;;8.00;;
11797;SDS011;5956;51.428;6.682;2022-12-07T08:43:43;10.27;;;8.40;;
11797;SDS011;5956;51.428;6.682;2022-12-07T08:46:10;8.73;;;7.87;;
11797;SDS011;5956;51.428;6.682;2022-12-07T08:48:41;9.03;;;8.07;;
11797;SDS011;5956;51.428;6.682;2022-12-07T08:51:09;13.20;;;11.00;;
11797;SDS011;5956;51.428;6.682;2022-12-07T08:53:37;9.20;;;8.40;;
11797;SDS011;5956;51.428;6.682;2022-12-07T08:56:04;9.00;;;8.10;;
11797;SDS011;5956;51.428;6.682;2022-12-07T08:58:31;9.60;;;7.47;;
11797;SDS011;5956;51.428;6.682;2022-12-07T09:00:58;8.67;;;7.87;;
11797;SDS011;5956;51.428;6.682;2022-12-07T09:03:25;8.67;;;7.77;;
11797;SDS011;5956;51.428;6.682;2022-12-07T09:05:52;14.73;;;9.13;;
11797;SDS011;5956;51.428;6.682;2022-12-07T09:08:20;16.50;;;10.60;;
11797;SDS011;5956;51.428;6.682;2022-12-07T09:10:48;12.10;;;9.10;;
11797;SDS011;5956;51.428;6.682;2022-12-07T09:13:14;10.70;;;8.37;;
11797;SDS011;5956;51.428;6.682;2022-12-07T09:15:41;10.17;;;7.57;;
11797;SDS011;5956;51.428;6.682;2022-12-07T09:18:07;8.37;;;7.47;;
11797;SDS011;5956;51.428;6.682;2022-12-07T09:20:34;8.60;;;7.53;;
11797;SDS011;5956;51.428;6.682;2022-12-07T09:23:00;8.77;;;7.67;;
11797;SDS011;5956;51.428;6.682;2022-12-07T09:25:28;11.17;;;7.93;;
11797;SDS011;5956;51.428;6.682;2022-12-07T09:27:56;8.77;;;6.47;;
11797;SDS011;5956;51.428;6.682;2022-12-07T09:30:23;8.93;;;7.10;;
11797;SDS011;5956;51.428;6.682;2022-12-07T09:32:52;8.47;;;6.07;;
11797;SDS011;5956;51.428;6.682;2022-12-07T09:35:19;8.10;;;6.73;;
11797;SDS011;5956;51.428;6.682;2022-12-07T09:37:46;8.63;;;6.80;;
11797;SDS011;5956;51.428;6.682;2022-12-07T09:40:12;7.70;;;6.50;;
11797;SDS011;5956;51.428;6.682;2022-12-07T09:42:42;8.20;;;5.80;;
11797;SDS011;5956;51.428;6.682;2022-12-07T09:45:12;9.03;;;6.10;;
11797;SDS011;5956;51.428;6.682;2022-12-07T09:47:39;8.60;;;6.20;;
11797;SDS011;5956;51.428;6.682;2022-12-07T09:50:10;6.90;;;6.20;;
11797;SDS011;5956;51.428;6.682;2022-12-07T09:52:38;8.07;;;5.90;;
11797;SDS011;5956;51.428;6.682;2022-12-07T09:55:09;7.90;;;6.00;;
11797;SDS011;5956;51.428;6.682;2022-12-07T09:57:36;9.20;;;5.57;;
11797;SDS011;5956;51.428;6.682;2022-12-07T10:00:06;9.37;;;5.93;;
11797;SDS011;5956;51.428;6.682;2022-12-07T10:02:35;8.03;;;5.63;;
11797;SDS011;5956;51.428;6.682;2022-12-07T10:05:03;12.30;;;5.50;;
11797;SDS011;5956;51.428;6.682;2022-12-07T10:07:31;10.70;;;6.00;;
11797;SDS011;5956;51.428;6.682;2022-12-07T10:09:57;8.10;;;5.40;;
11797;SDS011;5956;51.428;6.682;2022-12-07T10:12:24;7.60;;;5.40;;
11797;SDS011;5956;51.428;6.682;2022-12-07T10:14:54;6.57;;;5.57;;
11797;SDS011;5956;51.428;6.682;2022-12-07T10:17:32;14.40;;;10.27;;
11797;SDS011;5956;51.428;6.682;2022-12-07T10:20:08;8.93;;;5.90;;
11797;SDS011;5956;51.428;6.682;2022-12-07T10:22:41;8.07;;;5.00;;
11797;SDS011;5956;51.428;6.682;2022-12-07T10:25:20;8.03;;;4.83;;
11797;SDS011;5956;51.428;6.682;2022-12-07T10:27:56;6.60;;;5.23;;
11797;SDS011;5956;51.428;6.682;2022-12-07T10:30:23;9.83;;;4.97;;
11797;SDS011;5956;51.428;6.682;2022-12-07T10:32:51;7.30;;;3.43;;
11797;SDS011;5956;51.428;6.682;2022-12-07T10:35:19;8.93;;;4.60;;
11797;SDS011;5956;51.428;6.682;2022-12-07T10:37:46;10.00;;;4.33;;
11797;SDS011;5956;51.428;6.682;2022-12-07T10:40:23;8.83;;;4.20;;
11797;SDS011;5956;51.428;6.682;2022-12-07T10:43:00;7.17;;;3.93;;
11797;SDS011;5956;51.428;6.682;2022-12-07T10:45:27;7.43;;;3.60;;
11797;SDS011;5956;51.428;6.682;2022-12-07T10:47:56;5.33;;;3.80;;
11797;SDS011;5956;51.428;6.682;2022-12-07T10:50:29;6.47;;;4.10;;
11797;SDS011;5956;51.428;6.682;2022-12-07T10:53:00;7.57;;;3.97;;
11797;SDS011;5956;51.428;6.682;2022-12-07T10:55:32;9.07;;;4.37;;
11797;SDS011;5956;51.428;6.682;2022-12-07T10:58:05;7.97;;;3.97;;
11797;SDS011;5956;51.428;6.682;2022-12-07T11:00:36;4.90;;;3.50;;
11797;SDS011;5956;51.428;6.682;2022-12-07T11:03:09;6.53;;;3.60;;
11797;SDS011;5956;51.428;6.682;2022-12-07T11:05:42;4.33;;;3.47;;
11797;SDS011;5956;51.428;6.682;2022-12-07T11:08:13;6.07;;;3.80;;
11797;SDS011;5956;51.428;6.682;2022-12-07T11:10:45;10.30;;;3.40;;
11797;SDS011;5956;51.428;6.682;2022-12-07T11:13:17;6.73;;;3.43;;
11797;SDS011;5956;51.428;6.682;2022-12-07T11:15:51;5.90;;;3.70;;
11797;SDS011;5956;51.428;6.682;2022-12-07T11:18:24;6.70;;;3.70;;
11797;SDS011;5956;51.428;6.682;2022-12-07T11:20:54;5.63;;;3.30;;
11797;SDS011;5956;51.428;6.682;2022-12-07T11:23:26;6.00;;;3.20;;
11797;SDS011;5956;51.428;6.682;2022-12-07T11:25:58;5.57;;;3.37;;
11797;SDS011;5956;51.428;6.682;2022-12-07T11:28:30;7.33;;;4.30;;
11797;SDS011;5956;51.428;6.682;2022-12-07T11:31:03;8.40;;;3.60;;
11797;SDS011;5956;51.428;6.682;2022-12-07T11:33:35;5.57;;;3.80;;
11797;SDS011;5956;51.428;6.682;2022-12-07T11:36:08;9.77;;;5.77;;
11797;SDS011;5956;51.428;6.682;2022-12-07T11:38:41;18.50;;;7.97;;
11797;SDS011;5956;51.428;6.682;2022-12-07T11:41:09;8.37;;;3.57;;
11797;SDS011;5956;51.428;6.682;2022-12-07T11:43:41;4.43;;;3.43;;
11797;SDS011;5956;51.428;6.682;2022-12-07T11:46:14;5.27;;;3.90;;
11797;SDS011;5956;51.428;6.682;2022-12-07T11:48:44;11.50;;;8.67;;
11797;SDS011;5956;51.428;6.682;2022-12-07T11:51:12;6.57;;;3.77;;
11797;SDS011;5956;51.428;6.682;2022-12-07T11:53:41;4.90;;;2.87;;
11797;SDS011;5956;51.428;6.682;2022-12-07T11:56:10;5.90;;;3.10;;
11797;SDS011;5956;51.428;6.682;2022-12-07T11:58:40;5.83;;;2.90;;
11797;SDS011;5956;51.428;6.682;2022-12-07T12:01:14;7.10;;;2.80;;
11797;SDS011;5956;51.428;6.682;2022-12-07T12:03:46;3.27;;;2.30;;
11797;SDS011;5956;51.428;6.682;2022-12-07T12:06:13;4.00;;;2.23;;
11797;SDS011;5956;51.428;6.682;2022-12-07T12:08:41;6.47;;;2.43;;
11797;SDS011;5956;51.428;6.682;2022-12-07T12:11:13;3.30;;;2.40;;
11797;SDS011;5956;51.428;6.682;2022-12-07T12:13:50;2.87;;;2.20;;
11797;SDS011;5956;51.428;6.682;2022-12-07T12:16:30;4.60;;;2.60;;
11797;SDS011;5956;51.428;6.682;2022-12-07T12:19:07;6.23;;;2.40;;
11797;SDS011;5956;51.428;6.682;2022-12-07T12:21:37;7.80;;;4.67;;
11797;SDS011;5956;51.428;6.682;2022-12-07T12:24:04;4.77;;;2.67;;
11797;SDS011;5956;51.428;6.682;2022-12-07T12:26:35;7.83;;;3.33;;
11797;SDS011;5956;51.428;6.682;2022-12-07T12:29:04;7.90;;;3.13;;
11797;SDS011;5956;51.428;6.682;2022-12-07T12:31:34;5.63;;;2.80;;
11797;SDS011;5956;51.428;6.682;2022-12-07T12:36:55;3.97;;;2.27;;
11797;SDS011;5956;51.428;6.682;2022-12-07T12:39:22;4.80;;;1.63;;
11797;SDS011;5956;51.428;6.682;2022-12-07T12:41:51;6.87;;;1.70;;
11797;SDS011;5956;51.428;6.682;2022-12-07T12:57:35;4.93;;;2.07;;
11797;SDS011;5956;51.428;6.682;2022-12-07T13:00:02;2.70;;;2.00;;
11797;SDS011;5956;51.428;6.682;2022-12-07T13:02:30;5.03;;;3.10;;
11797;SDS011;5956;51.428;6.682;2022-12-07T13:05:00;3.37;;;2.50;;
11797;SDS011;5956;51.428;6.682;2022-12-07T13:10:20;6.10;;;2.80;;
11797;SDS011;5956;51.428;6.682;2022-12-07T13:12:55;9.20;;;3.33;;
11797;SDS011;5956;51.428;6.682;2022-12-07T13:20:53;4.30;;;2.90;;
11797;SDS011;5956;51.428;6.682;2022-12-07T13:23:24;5.20;;;3.37;;
11797;SDS011;5956;51.428;6.682;2022-12-07T13:25:51;4.50;;;2.87;;
11797;SDS011;5956;51.428;6.682;2022-12-07T13:28:22;7.60;;;4.20;;
11797;SDS011;5956;51.428;6.682;2022-12-07T13:30:58;8.57;;;2.50;;
11797;SDS011;5956;51.428;6.682;2022-12-07T13:33:27;7.13;;;3.10;;
11797;SDS011;5956;51.428;6.682;2022-12-07T13:35:54;4.50;;;2.43;;
11797;SDS011;5956;51.428;6.682;2022-12-07T13:38:23;6.23;;;3.00;;
11797;SDS011;5956;51.428;6.682;2022-12-07T13:41:05;6.63;;;2.73;;
11797;SDS011;5956;51.428;6.682;2022-12-07T13:43:43;5.00;;;1.90;;
11797;SDS011;5956;51.428;6.682;2022-12-07T13:46:11;8.17;;;2.70;;
11797;SDS011;5956;51.428;6.682;2022-12-07T13:48:43;3.50;;;2.30;;
11797;SDS011;5956;51.428;6.682;2022-12-07T13:51:16;5.20;;;2.23;;
11797;SDS011;5956;51.428;6.682;2022-12-07T13:53:46;4.27;;;2.43;;
11797;SDS011;5956;51.428;6.682;2022-12-07T13:56:13;5.50;;;2.20;;
11797;SDS011;5956;51.428;6.682;2022-12-07T13:58:40;4.03;;;2.40;;
11797;SDS011;5956;51.428;6.682;2022-12-07T14:01:08;7.10;;;2.43;;
11797;SDS011;5956;51.428;6.682;2022-12-07T14:03:35;3.60;;;2.40;;
11797;SDS011;5956;51.428;6.682;2022-12-07T14:06:06;6.43;;;2.27;;
11797;SDS011;5956;51.428;6.682;2022-12-07T14:08:33;10.73;;;5.53;;
11797;SDS011;5956;51.428;6.682;2022-12-07T14:11:00;6.60;;;3.63;;
11797;SDS011;5956;51.428;6.682;2022-12-07T14:13:28;6.20;;;2.40;;
11797;SDS011;5956;51.428;6.682;2022-12-07T14:15:57;4.73;;;2.53;;
11797;SDS011;5956;51.428;6.682;2022-12-07T14:18:27;4.20;;;2.70;;
11797;SDS011;5956;51.428;6.682;2022-12-07T14:21:04;5.67;;;3.17;;
11797;SDS011;5956;51.428;6.682;2022-12-07T14:23:31;6.73;;;2.77;;
11797;SDS011;5956;51.428;6.682;2022-12-07T14:26:05;20.30;;;13.13;;
11797;SDS011;5956;51.428;6.682;2022-12-07T14:28:33;32.47;;;11.27;;
11797;SDS011;5956;51.428;6.682;2022-12-07T14:31:00;32.50;;;9.10;;
11797;SDS011;5956;51.428;6.682;2022-12-07T14:33:28;16.33;;;3.37;;
11797;SDS011;5956;51.428;6.682;2022-12-07T14:35:55;6.70;;;2.13;;
11797;SDS011;5956;51.428;6.682;2022-12-07T14:38:23;13.97;;;3.80;;
11797;SDS011;5956;51.428;6.682;2022-12-07T14:40:51;6.63;;;2.90;;
11797;SDS011;5956;51.428;6.682;2022-12-07T14:43:18;4.87;;;2.13;;
11797;SDS011;5956;51.428;6.682;2022-12-07T14:45:45;4.33;;;2.07;;
11797;SDS011;5956;51.428;6.682;2022-12-07T14:48:12;4.23;;;2.07;;
11797;SDS011;5956;51.428;6.682;2022-12-07T14:50:41;6.50;;;2.17;;
11797;SDS011;5956;51.428;6.682;2022-12-07T14:53:09;2.87;;;1.87;;
11797;SDS011;5956;51.428;6.682;2022-12-07T14:55:38;2.30;;;2.00;;
11797;SDS011;5956;51.428;6.682;2022-12-07T14:58:07;4.40;;;2.23;;
11797;SDS011;5956;51.428;6.682;2022-12-07T15:00:38;5.90;;;2.03;;
11797;SDS011;5956;51.428;6.682;2022-12-07T15:03:08;6.97;;;3.03;;
11797;SDS011;5956;51.428;6.682;2022-12-07T15:05:34;9.40;;;2.87;;
11797;SDS011;5956;51.428;6.682;2022-12-07T15:08:05;7.43;;;2.70;;
11797;SDS011;5956;51.428;6.682;2022-12-07T15:10:37;6.70;;;2.97;;
11797;SDS011;5956;51.428;6.682;2022-12-07T15:13:17;5.20;;;2.97;;
11797;SDS011;5956;51.428;6.682;2022-12-07T15:16:01;7.53;;;2.70;;
11797;SDS011;5956;51.428;6.682;2022-12-07T15:18:28;8.63;;;3.23;;
11797;SDS011;5956;51.428;6.682;2022-12-07T15:20:59;6.27;;;2.70;;
11797;SDS011;5956;51.428;6.682;2022-12-07T15:23:42;4.43;;;3.00;;
11797;SDS011;5956;51.428;6.682;2022-12-07T15:26:10;5.67;;;3.10;;
11797;SDS011;5956;51.428;6.682;2022-12-07T15:28:36;4.93;;;2.60;;
11797;SDS011;5956;51.428;6.682;2022-12-07T15:31:04;7.07;;;2.87;;
11797;SDS011;5956;51.428;6.682;2022-12-07T15:33:37;5.50;;;2.90;;
11797;SDS011;5956;51.428;6.682;2022-12-07T15:36:04;5.07;;;2.90;;
11797;SDS011;5956;51.428;6.682;2022-12-07T15:38:33;5.10;;;3.00;;